Terminal Aerodrome Forecast
Issued by NWS

Home | Current Version | Previous Version | Text Only | Print | Product List | Glossary On
Versions: 1 2 3 4 5 6 7 8 9 10 11 12 13 14 15 16 17
000
FTUS43 KEAX 280500
TAFSTJ
TAF
KSTJ 280520Z 2806/2906 09007KT P6SM SKC
     FM280800 11007KT P6SM VCTS SCT030CB BKN060
      TEMPO 2810/2813 4SM -TSRA BKN030CB OVC050
     FM281500 19011KT P6SM SCT050 BKN120=

USA.gov is the U.S. government's official web portal to all federal, state and local government web resources and services.